Time;durP1;ratioP1;P1;durP2;ratioP2;P2;SDS_P1;SDS_P2;PMS_P1;PMS_P2;Temp;Humidity;BMP_temperature;BMP_pressure;BME280_temperature;BME280_humidity;BME280_pressure;Samples;Min_cycle;Max_cycle;Signal;HPM_P1;HPM_P2
2022/03/06 00:01:30;;;;;;;66.40;12.10;;;;;;;;;;5030556;28;20564;-54
2022/03/06 00:03:55;;;;;;;75.57;13.87;;;;;;;;;;5029864;28;20278;-54
2022/03/06 00:06:22;;;;;;;75.67;13.67;;;;;;;;;;5025816;28;20196;-54
2022/03/06 00:08:48;;;;;;;60.07;10.83;;;;;;;;;;5027381;28;20278;-54
2022/03/06 00:11:14;;;;;;;71.47;12.17;;;;;;;;;;5025521;28;20244;-55
2022/03/06 00:13:39;;;;;;;60.37;11.03;;;;;;;;;;5035775;28;20191;-54
2022/03/06 00:16:06;;;;;;;71.50;13.60;;;;;;;;;;5024835;28;20655;-55
2022/03/06 00:18:31;;;;;;;58.47;11.47;;;;;;;;;;5029094;28;20263;-54
2022/03/06 00:20:59;;;;;;;71.73;13.27;;;;;;;;;;5029099;28;20200;-54
2022/03/06 00:23:25;;;;;;;77.63;13.17;;;;;;;;;;5029696;28;20195;-55
2022/03/06 00:25:51;;;;;;;87.53;15.37;;;;;;;;;;5020647;28;20679;-55
2022/03/06 00:28:17;;;;;;;72.80;13.20;;;;;;;;;;5023609;28;20216;-54
2022/03/06 00:30:43;;;;;;;65.47;11.93;;;;;;;;;;5025370;28;20184;-54
2022/03/06 00:33:08;;;;;;;74.83;12.73;;;;;;;;;;5028966;28;20217;-56
2022/03/06 00:35:34;;;;;;;47.47;9.57;;;;;;;;;;5019162;28;20212;-55
2022/03/06 00:38:01;;;;;;;67.43;12.73;;;;;;;;;;5027794;28;20562;-54
2022/03/06 00:40:27;;;;;;;97.70;16.50;;;;;;;;;;5023305;28;20237;-54
2022/03/06 00:42:53;;;;;;;65.13;11.23;;;;;;;;;;5027335;28;20267;-54
2022/03/06 00:45:19;;;;;;;101.83;17.67;;;;;;;;;;5024373;28;20655;-54
2022/03/06 00:47:45;;;;;;;61.50;11.77;;;;;;;;;;5026759;28;20763;-55
2022/03/06 00:50:11;;;;;;;133.57;21.80;;;;;;;;;;5023356;28;20180;-55
2022/03/06 00:52:38;;;;;;;72.33;12.83;;;;;;;;;;5024933;28;20231;-54
2022/03/06 00:55:04;;;;;;;61.30;10.87;;;;;;;;;;5027807;28;20207;-54
2022/03/06 00:57:30;;;;;;;63.27;11.53;;;;;;;;;;5021684;28;20188;-54
2022/03/06 00:59:56;;;;;;;53.20;9.53;;;;;;;;;;5031449;28;20535;-54
2022/03/06 01:02:22;;;;;;;93.97;15.20;;;;;;;;;;5017067;28;20628;-55
2022/03/06 01:04:49;;;;;;;54.80;10.87;;;;;;;;;;5020422;28;20265;-55
2022/03/06 01:07:15;;;;;;;77.87;14.00;;;;;;;;;;5025515;28;20227;-55
2022/03/06 01:09:41;;;;;;;53.13;10.47;;;;;;;;;;5029255;28;20648;-54
2022/03/06 01:12:07;;;;;;;66.83;12.33;;;;;;;;;;5020907;28;20198;-54
2022/03/06 01:14:33;;;;;;;76.27;13.70;;;;;;;;;;5020133;28;20212;-54
2022/03/06 01:16:59;;;;;;;83.73;14.83;;;;;;;;;;5028375;28;20434;-54
2022/03/06 01:19:25;;;;;;;77.53;14.50;;;;;;;;;;5025758;28;20540;-54
2022/03/06 01:21:51;;;;;;;62.63;11.97;;;;;;;;;;5028496;28;20180;-55
2022/03/06 01:24:17;;;;;;;113.63;18.67;;;;;;;;;;5022604;28;20652;-54
2022/03/06 01:26:43;;;;;;;61.73;11.33;;;;;;;;;;5022254;28;20215;-55
2022/03/06 01:29:09;;;;;;;73.67;12.83;;;;;;;;;;5028311;28;20218;-54
2022/03/06 01:31:35;;;;;;;61.93;11.30;;;;;;;;;;5023590;28;20271;-54
2022/03/06 01:34:02;;;;;;;65.93;11.67;;;;;;;;;;5027594;28;20263;-54
2022/03/06 01:36:28;;;;;;;68.97;12.07;;;;;;;;;;5019030;28;20180;-54
2022/03/06 01:38:54;;;;;;;87.50;15.70;;;;;;;;;;5026155;28;20211;-55
2022/03/06 01:41:20;;;;;;;56.40;10.77;;;;;;;;;;5022026;28;20611;-54
2022/03/06 01:43:46;;;;;;;85.47;14.07;;;;;;;;;;5025392;28;20246;-54
2022/03/06 01:46:13;;;;;;;35.40;7.53;;;;;;;;;;5026689;28;20230;-54
2022/03/06 01:48:39;;;;;;;63.00;11.17;;;;;;;;;;5025268;28;20258;-54
2022/03/06 01:51:04;;;;;;;97.57;16.53;;;;;;;;;;5022924;28;20544;-54
2022/03/06 01:53:30;;;;;;;86.97;15.47;;;;;;;;;;5026218;28;20183;-54
2022/03/06 01:55:56;;;;;;;97.30;17.33;;;;;;;;;;5026028;28;20351;-54
2022/03/06 01:58:22;;;;;;;84.90;14.77;;;;;;;;;;5029236;28;20214;-54
2022/03/06 02:00:49;;;;;;;90.57;15.67;;;;;;;;;;5025486;28;20194;-54
2022/03/06 02:03:16;;;;;;;98.87;16.70;;;;;;;;;;5032787;28;20661;-54
2022/03/06 02:05:42;;;;;;;64.63;11.30;;;;;;;;;;5030259;28;20516;-54
2022/03/06 02:08:08;;;;;;;53.60;10.47;;;;;;;;;;5033556;28;20210;-54
2022/03/06 02:10:35;;;;;;;38.63;7.97;;;;;;;;;;5016365;28;20311;-54
2022/03/06 02:13:01;;;;;;;106.00;16.80;;;;;;;;;;5034203;28;20274;-55
2022/03/06 02:15:27;;;;;;;61.33;11.03;;;;;;;;;;5030551;28;20263;-54
2022/03/06 02:17:53;;;;;;;58.37;10.67;;;;;;;;;;5032035;28;20354;-54
2022/03/06 02:20:23;;;;;;;74.20;13.23;;;;;;;;;;5028952;28;20352;-55
2022/03/06 02:22:50;;;;;;;58.87;11.43;;;;;;;;;;5034335;28;20199;-54
2022/03/06 02:25:18;;;;;;;98.07;17.10;;;;;;;;;;5029505;28;20949;-54
2022/03/06 02:27:43;;;;;;;57.03;10.87;;;;;;;;;;5029043;28;20218;-54
2022/03/06 02:30:14;;;;;;;60.17;11.60;;;;;;;;;;5034651;28;20188;-54
2022/03/06 02:32:40;;;;;;;50.70;9.30;;;;;;;;;;5035272;28;20181;-54
2022/03/06 02:35:07;;;;;;;108.77;18.47;;;;;;;;;;5026745;28;23472;-54
2022/03/06 02:37:33;;;;;;;70.40;12.93;;;;;;;;;;5026290;28;20247;-54
2022/03/06 02:40:00;;;;;;;64.20;11.83;;;;;;;;;;5032195;28;20246;-54
2022/03/06 02:42:30;;;;;;;72.47;13.40;;;;;;;;;;5026111;28;20284;-54
2022/03/06 02:44:58;;;;;;;58.10;11.13;;;;;;;;;;5032164;28;20207;-54
2022/03/06 02:47:25;;;;;;;80.13;14.07;;;;;;;;;;5030560;28;20207;-54
2022/03/06 02:49:51;;;;;;;86.67;15.43;;;;;;;;;;5028452;28;20575;-54
2022/03/06 02:52:17;;;;;;;57.97;10.60;;;;;;;;;;5028271;28;20593;-54
2022/03/06 02:54:43;;;;;;;69.67;12.23;;;;;;;;;;5033221;28;20357;-54
2022/03/06 02:57:09;;;;;;;60.20;11.03;;;;;;;;;;5029690;28;20531;-54
2022/03/06 02:59:35;;;;;;;73.80;13.37;;;;;;;;;;5032191;28;22833;-54
2022/03/06 03:02:01;;;;;;;78.60;13.63;;;;;;;;;;5029422;28;20203;-54
2022/03/06 03:04:27;;;;;;;73.00;13.17;;;;;;;;;;5017480;28;20545;-54
2022/03/06 03:06:53;;;;;;;93.73;15.63;;;;;;;;;;5030873;28;20225;-54
2022/03/06 03:09:20;;;;;;;57.90;11.23;;;;;;;;;;5026927;28;20284;-54
2022/03/06 03:11:46;;;;;;;65.17;11.47;;;;;;;;;;5024259;28;20207;-54
2022/03/06 03:14:13;;;;;;;82.87;14.80;;;;;;;;;;5023757;28;20212;-54
2022/03/06 03:16:39;;;;;;;76.03;12.87;;;;;;;;;;5019638;28;20200;-54
2022/03/06 03:19:05;;;;;;;62.30;10.93;;;;;;;;;;5026044;28;20185;-54
2022/03/06 03:21:31;;;;;;;62.97;11.87;;;;;;;;;;5029058;28;20479;-54
2022/03/06 03:23:57;;;;;;;84.07;14.03;;;;;;;;;;5023970;28;20290;-54
2022/03/06 03:26:22;;;;;;;72.53;13.00;;;;;;;;;;5019562;28;20259;-54
2022/03/06 03:28:48;;;;;;;81.07;14.30;;;;;;;;;;5026858;28;20272;-54
2022/03/06 03:31:14;;;;;;;91.97;15.87;;;;;;;;;;5022833;28;20275;-54
2022/03/06 03:33:40;;;;;;;71.97;13.20;;;;;;;;;;5020345;28;20225;-54
2022/03/06 03:36:06;;;;;;;83.80;15.00;;;;;;;;;;5023741;28;20204;-54
2022/03/06 03:38:32;;;;;;;73.00;13.03;;;;;;;;;;5014831;28;20794;-54
2022/03/06 03:41:01;;;;;;;82.87;14.67;;;;;;;;;;5023428;28;20184;-54
2022/03/06 03:43:26;;;;;;;112.67;19.17;;;;;;;;;;5023179;28;20645;-54
2022/03/06 03:45:53;;;;;;;85.30;14.93;;;;;;;;;;5020649;28;20208;-54
2022/03/06 03:48:19;;;;;;;70.97;13.20;;;;;;;;;;5026583;28;20352;-54
2022/03/06 03:50:44;;;;;;;73.10;13.27;;;;;;;;;;5018282;28;20196;-54
2022/03/06 03:53:10;;;;;;;80.67;14.43;;;;;;;;;;5026490;28;20176;-54
2022/03/06 03:55:37;;;;;;;119.80;20.30;;;;;;;;;;5027212;28;20682;-54
2022/03/06 03:58:02;;;;;;;51.97;10.07;;;;;;;;;;5033217;28;20253;-54
2022/03/06 04:00:28;;;;;;;76.50;13.27;;;;;;;;;;5018224;28;20683;-54
2022/03/06 04:02:55;;;;;;;74.37;13.13;;;;;;;;;;5031785;28;20277;-54
2022/03/06 04:05:21;;;;;;;71.57;13.30;;;;;;;;;;5024238;28;20211;-54
2022/03/06 04:07:47;;;;;;;54.20;10.73;;;;;;;;;;5029709;28;20212;-54
2022/03/06 04:10:13;;;;;;;70.80;13.07;;;;;;;;;;5023727;28;20211;-54
2022/03/06 04:12:39;;;;;;;53.83;10.47;;;;;;;;;;5028576;28;20179;-54
2022/03/06 04:15:05;;;;;;;54.47;10.00;;;;;;;;;;5029390;28;20207;-54
2022/03/06 04:17:31;;;;;;;55.47;10.50;;;;;;;;;;5029869;28;20206;-54
2022/03/06 04:19:57;;;;;;;76.00;13.33;;;;;;;;;;5027848;28;20664;-54
2022/03/06 04:22:23;;;;;;;48.27;9.70;;;;;;;;;;5028300;28;20275;-54
2022/03/06 04:24:49;;;;;;;57.03;10.93;;;;;;;;;;5025350;28;20211;-54
2022/03/06 04:27:14;;;;;;;76.23;13.30;;;;;;;;;;5020189;28;20216;-53
2022/03/06 04:29:40;;;;;;;61.23;11.70;;;;;;;;;;5028876;28;20609;-54
2022/03/06 04:32:07;;;;;;;90.60;16.03;;;;;;;;;;5027492;28;20598;-54
2022/03/06 04:34:32;;;;;;;72.87;13.40;;;;;;;;;;5028675;28;20296;-54
2022/03/06 04:36:58;;;;;;;54.37;10.53;;;;;;;;;;5028261;28;20671;-54
2022/03/06 04:39:24;;;;;;;58.77;11.27;;;;;;;;;;5030297;28;20189;-54
2022/03/06 04:41:50;;;;;;;46.10;9.30;;;;;;;;;;5028653;28;20184;-53
2022/03/06 04:44:16;;;;;;;56.47;10.97;;;;;;;;;;5028341;28;20239;-54
2022/03/06 04:46:42;;;;;;;83.57;14.43;;;;;;;;;;5028599;28;20187;-54
2022/03/06 04:49:08;;;;;;;60.33;11.23;;;;;;;;;;5028660;28;20184;-53
2022/03/06 04:51:34;;;;;;;34.33;7.70;;;;;;;;;;5021218;28;20619;-53
2022/03/06 04:54:00;;;;;;;68.00;12.30;;;;;;;;;;5027314;28;20199;-53
2022/03/06 04:56:26;;;;;;;59.93;10.93;;;;;;;;;;5023243;28;20191;-54
2022/03/06 04:58:52;;;;;;;85.20;15.13;;;;;;;;;;5019632;28;20188;-54
2022/03/06 05:01:18;;;;;;;70.73;12.87;;;;;;;;;;5005101;28;20496;-53
2022/03/06 05:03:44;;;;;;;74.53;13.80;;;;;;;;;;5020924;28;20438;-53
2022/03/06 05:06:10;;;;;;;82.63;14.53;;;;;;;;;;5021809;28;22048;-54
2022/03/06 05:08:35;;;;;;;70.73;12.50;;;;;;;;;;5026276;28;20203;-54
2022/03/06 05:11:01;;;;;;;85.53;15.03;;;;;;;;;;5019988;28;20187;-53
2022/03/06 05:13:27;;;;;;;87.00;15.63;;;;;;;;;;5018481;28;20183;-55
2022/03/06 05:15:53;;;;;;;32.37;7.07;;;;;;;;;;5027693;28;20231;-55
2022/03/06 05:18:20;;;;;;;28.10;6.37;;;;;;;;;;5028722;28;20310;-55
2022/03/06 05:20:46;;;;;;;33.80;6.60;;;;;;;;;;5028160;28;20184;-55
2022/03/06 05:23:12;;;;;;;41.13;7.53;;;;;;;;;;5026767;28;20184;-55
2022/03/06 05:25:38;;;;;;;41.07;7.43;;;;;;;;;;5027571;28;20702;-55
2022/03/06 05:28:04;;;;;;;31.50;6.27;;;;;;;;;;5027099;28;20199;-55
2022/03/06 05:30:33;;;;;;;39.37;7.27;;;;;;;;;;5028986;28;20485;-55
2022/03/06 05:32:59;;;;;;;36.90;6.87;;;;;;;;;;5027037;28;20237;-55
2022/03/06 05:35:25;;;;;;;33.03;6.53;;;;;;;;;;5026552;28;20200;-55
2022/03/06 05:37:51;;;;;;;41.57;7.70;;;;;;;;;;5026987;28;20227;-55
2022/03/06 05:40:16;;;;;;;38.33;7.40;;;;;;;;;;5009536;28;20630;-55
2022/03/06 05:42:43;;;;;;;29.50;6.23;;;;;;;;;;5028115;28;20203;-55
2022/03/06 05:45:09;;;;;;;34.50;7.27;;;;;;;;;;5017674;28;20728;-55
2022/03/06 05:47:35;;;;;;;29.97;6.10;;;;;;;;;;5027984;28;20196;-55
2022/03/06 05:50:02;;;;;;;35.00;6.77;;;;;;;;;;5028137;28;20172;-55
2022/03/06 05:52:28;;;;;;;32.43;6.53;;;;;;;;;;5027843;28;20165;-55
2022/03/06 05:54:53;;;;;;;51.33;9.10;;;;;;;;;;5026969;28;20601;-57
2022/03/06 05:57:19;;;;;;;34.43;6.87;;;;;;;;;;5026611;28;20178;-56
2022/03/06 05:59:45;;;;;;;33.73;6.67;;;;;;;;;;5028566;28;20180;-56
2022/03/06 06:02:12;;;;;;;29.10;6.50;;;;;;;;;;5028648;28;20214;-55
2022/03/06 06:04:40;;;;;;;32.27;6.27;;;;;;;;;;5028241;28;20249;-57
2022/03/06 06:07:06;;;;;;;31.73;6.73;;;;;;;;;;5028576;28;20212;-57
2022/03/06 06:09:32;;;;;;;18.77;5.00;;;;;;;;;;5028430;28;20561;-56
2022/03/06 06:11:58;;;;;;;32.07;6.57;;;;;;;;;;5028161;28;20177;-56
2022/03/06 06:14:24;;;;;;;33.67;6.63;;;;;;;;;;5026857;28;20192;-56
2022/03/06 06:16:50;;;;;;;30.83;6.07;;;;;;;;;;5028408;28;20199;-56
2022/03/06 06:19:15;;;;;;;35.87;6.80;;;;;;;;;;5028275;28;20207;-55
2022/03/06 06:21:43;;;;;;;34.57;6.93;;;;;;;;;;5028101;28;20180;-57
2022/03/06 06:24:10;;;;;;;36.67;7.27;;;;;;;;;;5027905;28;20176;-56
2022/03/06 06:26:36;;;;;;;34.47;7.03;;;;;;;;;;5027073;28;20226;-57
2022/03/06 06:29:03;;;;;;;31.67;6.63;;;;;;;;;;5028023;28;20203;-55
2022/03/06 06:31:29;;;;;;;32.73;6.37;;;;;;;;;;5028372;28;20266;-57
2022/03/06 06:33:55;;;;;;;31.77;6.17;;;;;;;;;;5028058;28;20502;-56
2022/03/06 06:36:21;;;;;;;37.10;7.00;;;;;;;;;;5028290;28;20180;-55
2022/03/06 06:38:47;;;;;;;29.70;6.50;;;;;;;;;;5027824;28;20267;-56
2022/03/06 06:41:13;;;;;;;34.77;7.07;;;;;;;;;;5028317;28;20708;-55
2022/03/06 06:43:40;;;;;;;22.17;5.20;;;;;;;;;;5027936;28;20605;-56
2022/03/06 06:46:06;;;;;;;30.77;6.33;;;;;;;;;;5027741;28;20307;-56
2022/03/06 06:48:31;;;;;;;33.63;6.83;;;;;;;;;;5030280;28;20281;-56
2022/03/06 06:50:58;;;;;;;24.77;5.53;;;;;;;;;;5030290;28;20516;-57
2022/03/06 06:53:24;;;;;;;40.93;7.47;;;;;;;;;;5056304;28;20178;-56
2022/03/06 06:55:49;;;;;;;38.13;6.83;;;;;;;;;;5070738;28;20209;-55
2022/03/06 06:58:15;;;;;;;46.57;8.07;;;;;;;;;;5069368;28;20712;-55
2022/03/06 07:00:41;;;;;;;42.03;7.83;;;;;;;;;;5070443;28;20191;-54
2022/03/06 07:03:08;;;;;;;26.37;5.63;;;;;;;;;;5070084;28;20174;-56
2022/03/06 07:05:34;;;;;;;35.10;6.43;;;;;;;;;;5071405;28;20697;-56
2022/03/06 07:08:00;;;;;;;35.60;6.53;;;;;;;;;;5071023;28;20203;-56
2022/03/06 07:10:26;;;;;;;29.13;5.80;;;;;;;;;;5069765;28;20174;-55
2022/03/06 07:12:55;;;;;;;36.70;7.20;;;;;;;;;;5070998;28;20205;-55
2022/03/06 07:15:21;;;;;;;36.53;6.77;;;;;;;;;;5070747;28;20199;-56
2022/03/06 07:17:48;;;;;;;36.53;7.23;;;;;;;;;;5070732;28;20336;-56
2022/03/06 07:20:14;;;;;;;37.20;7.23;;;;;;;;;;5070868;28;20187;-56
2022/03/06 07:22:40;;;;;;;41.27;7.67;;;;;;;;;;5070026;28;20677;-56
2022/03/06 07:25:07;;;;;;;36.90;6.70;;;;;;;;;;5070612;28;20206;-56
2022/03/06 07:27:33;;;;;;;45.13;7.83;;;;;;;;;;5070915;28;20226;-56
2022/03/06 07:29:59;;;;;;;35.10;6.60;;;;;;;;;;5069412;28;20271;-56
2022/03/06 07:32:25;;;;;;;35.50;6.83;;;;;;;;;;5069576;28;20175;-56
2022/03/06 07:34:52;;;;;;;34.43;6.37;;;;;;;;;;5070665;28;20277;-56
2022/03/06 07:37:18;;;;;;;31.30;6.07;;;;;;;;;;5070333;28;20186;-56
2022/03/06 07:39:44;;;;;;;40.90;7.67;;;;;;;;;;5069926;28;20202;-55
2022/03/06 07:42:10;;;;;;;36.90;7.03;;;;;;;;;;5069605;28;20351;-56
2022/03/06 07:44:36;;;;;;;36.40;6.90;;;;;;;;;;5069607;28;20198;-56
2022/03/06 07:47:02;;;;;;;39.00;7.10;;;;;;;;;;5069879;28;20654;-55
2022/03/06 07:49:28;;;;;;;36.10;6.60;;;;;;;;;;5068530;28;20206;-55
2022/03/06 07:51:54;;;;;;;33.57;6.23;;;;;;;;;;5069060;28;20529;-55
2022/03/06 07:54:20;;;;;;;33.00;6.20;;;;;;;;;;5068619;28;20227;-56
2022/03/06 07:56:46;;;;;;;27.37;5.97;;;;;;;;;;5070453;28;20179;-56
2022/03/06 07:59:13;;;;;;;29.80;6.40;;;;;;;;;;5069187;28;20162;-53
2022/03/06 08:01:39;;;;;;;29.73;5.93;;;;;;;;;;5070393;28;20175;-55
2022/03/06 08:04:05;;;;;;;32.40;6.20;;;;;;;;;;5070077;28;20273;-53
2022/03/06 08:06:31;;;;;;;32.23;6.23;;;;;;;;;;5069593;28;20171;-55
2022/03/06 08:08:57;;;;;;;28.37;5.90;;;;;;;;;;5068976;28;20207;-56
2022/03/06 08:11:23;;;;;;;34.07;6.73;;;;;;;;;;5069537;28;20234;-54
2022/03/06 08:13:49;;;;;;;33.67;6.47;;;;;;;;;;5068744;28;20222;-55
2022/03/06 08:16:15;;;;;;;42.70;7.97;;;;;;;;;;5066339;28;20650;-55
2022/03/06 08:18:41;;;;;;;44.93;7.93;;;;;;;;;;5067390;28;20312;-54
2022/03/06 08:21:07;;;;;;;42.23;7.60;;;;;;;;;;5067410;28;20261;-55
2022/03/06 08:23:33;;;;;;;32.53;7.03;;;;;;;;;;5068945;28;20171;-55
2022/03/06 08:25:59;;;;;;;38.33;7.53;;;;;;;;;;5069666;28;20281;-55
2022/03/06 08:28:25;;;;;;;45.83;8.40;;;;;;;;;;5067599;28;20234;-55
2022/03/06 08:30:51;;;;;;;38.17;7.30;;;;;;;;;;5066773;28;20171;-55
2022/03/06 08:33:17;;;;;;;45.37;8.20;;;;;;;;;;5069744;28;20174;-55
2022/03/06 08:35:43;;;;;;;21.80;4.70;;;;;;;;;;5069384;28;20673;-55
2022/03/06 08:38:09;;;;;;;33.80;6.33;;;;;;;;;;5069665;28;20269;-55
2022/03/06 08:40:35;;;;;;;37.33;7.23;;;;;;;;;;5069569;28;20618;-55
2022/03/06 08:43:01;;;;;;;43.17;8.30;;;;;;;;;;5068531;28;20416;-55
2022/03/06 08:45:27;;;;;;;52.20;8.80;;;;;;;;;;5067725;28;20696;-56
2022/03/06 08:47:53;;;;;;;38.40;7.67;;;;;;;;;;5067823;28;20245;-55
2022/03/06 08:50:19;;;;;;;44.53;8.60;;;;;;;;;;5051640;28;20670;-54
2022/03/06 08:52:45;;;;;;;51.87;9.37;;;;;;;;;;5045611;28;20172;-53
2022/03/06 08:55:11;;;;;;;39.03;7.67;;;;;;;;;;5048340;28;20258;-54
2022/03/06 08:57:37;;;;;;;20.03;5.33;;;;;;;;;;5048427;28;20187;-53
2022/03/06 09:00:04;;;;;;;27.10;6.00;;;;;;;;;;5067195;28;20212;-54
2022/03/06 09:02:30;;;;;;;33.77;6.80;;;;;;;;;;5048509;28;20184;-53
2022/03/06 09:04:56;;;;;;;24.27;5.73;;;;;;;;;;5056598;28;20356;-54
2022/03/06 09:07:22;;;;;;;34.10;7.23;;;;;;;;;;5046854;28;20299;-54
2022/03/06 09:09:49;;;;;;;52.73;9.40;;;;;;;;;;5047914;28;20236;-54
2022/03/06 09:12:15;;;;;;;35.90;7.20;;;;;;;;;;5050938;28;20670;-54
2022/03/06 09:14:41;;;;;;;34.27;6.87;;;;;;;;;;5041460;28;20278;-56
2022/03/06 09:17:09;;;;;;;51.03;9.03;;;;;;;;;;5057506;28;20298;-56
2022/03/06 09:19:35;;;;;;;43.77;8.03;;;;;;;;;;5053363;28;20535;-54
2022/03/06 09:22:01;;;;;;;30.17;6.73;;;;;;;;;;5045583;28;20267;-55
2022/03/06 09:24:27;;;;;;;23.80;5.53;;;;;;;;;;5059713;28;20616;-57
2022/03/06 09:26:52;;;;;;;47.07;8.77;;;;;;;;;;5066727;28;20580;-56
2022/03/06 09:29:18;;;;;;;38.60;7.70;;;;;;;;;;5055492;28;20247;-56
2022/03/06 09:31:44;;;;;;;92.77;16.23;;;;;;;;;;5032494;28;20184;-53
2022/03/06 09:34:10;;;;;;;82.90;14.13;;;;;;;;;;5016569;28;20190;-53
2022/03/06 09:36:36;;;;;;;103.67;17.57;;;;;;;;;;5019666;28;20278;-53
2022/03/06 09:39:03;;;;;;;72.40;13.30;;;;;;;;;;5027874;28;20215;-53
2022/03/06 09:41:29;;;;;;;72.97;12.63;;;;;;;;;;5020579;28;20291;-53
2022/03/06 09:43:56;;;;;;;98.03;16.70;;;;;;;;;;5016919;28;20727;-53
2022/03/06 09:46:22;;;;;;;98.17;16.57;;;;;;;;;;5019362;28;20505;-53
2022/03/06 09:48:49;;;;;;;61.13;10.67;;;;;;;;;;5028878;28;20260;-54
2022/03/06 09:51:14;;;;;;;53.73;10.27;;;;;;;;;;5045260;28;20787;-55
2022/03/06 09:53:40;;;;;;;38.80;8.30;;;;;;;;;;5046919;28;20266;-54
2022/03/06 09:56:07;;;;;;;37.50;7.97;;;;;;;;;;5048780;28;20667;-54
2022/03/06 09:58:33;;;;;;;46.30;8.53;;;;;;;;;;5047314;28;20598;-53
2022/03/06 10:00:59;;;;;;;41.67;8.10;;;;;;;;;;5045660;28;20280;-55
2022/03/06 10:03:25;;;;;;;32.93;7.03;;;;;;;;;;5027378;28;20195;-56
2022/03/06 10:05:51;;;;;;;46.27;9.27;;;;;;;;;;5031649;28;20753;-54
2022/03/06 10:08:23;;;;;;;48.20;9.60;;;;;;;;;;5025416;28;20279;-55
2022/03/06 10:10:51;;;;;;;50.80;9.30;;;;;;;;;;5025506;28;20181;-55
2022/03/06 10:13:24;;;;;;;47.77;8.93;;;;;;;;;;5054176;28;20190;-57
2022/03/06 10:16:07;;;;;;;29.77;6.63;;;;;;;;;;5045613;28;20278;-56
2022/03/06 10:18:36;;;;;;;27.00;6.80;;;;;;;;;;5048133;28;20179;-57
2022/03/06 10:21:13;;;;;;;43.80;8.53;;;;;;;;;;5047388;28;20195;-56
2022/03/06 10:23:39;;;;;;;30.97;6.63;;;;;;;;;;5030751;28;20385;-56
2022/03/06 10:26:05;;;;;;;45.73;8.47;;;;;;;;;;5050063;28;20203;-56
2022/03/06 10:28:32;;;;;;;41.23;8.13;;;;;;;;;;5048739;28;20223;-55
2022/03/06 10:31:05;;;;;;;41.60;8.43;;;;;;;;;;5030776;28;20184;-53
2022/03/06 10:33:31;;;;;;;52.67;10.00;;;;;;;;;;5029890;28;20192;-55
2022/03/06 10:35:58;;;;;;;47.90;8.93;;;;;;;;;;5029488;28;20235;-55
2022/03/06 10:38:27;;;;;;;32.93;7.37;;;;;;;;;;5029948;28;20187;-57
2022/03/06 10:40:54;;;;;;;49.23;9.60;;;;;;;;;;5030604;28;20195;-54
2022/03/06 10:43:33;;;;;;;36.70;7.80;;;;;;;;;;5030222;28;20177;-56
2022/03/06 10:46:07;;;;;;;39.33;7.90;;;;;;;;;;5033213;28;20192;-56
2022/03/06 10:48:33;;;;;;;44.77;9.27;;;;;;;;;;5069470;28;20209;-53
2022/03/06 10:51:00;;;;;;;29.13;7.10;;;;;;;;;;5069542;28;20175;-56
2022/03/06 10:53:26;;;;;;;52.63;9.07;;;;;;;;;;5051589;28;20240;-56
2022/03/06 10:55:52;;;;;;;44.43;8.23;;;;;;;;;;5069162;28;20190;-55
2022/03/06 10:58:19;;;;;;;46.87;9.40;;;;;;;;;;5070324;28;20708;-56
2022/03/06 11:00:46;;;;;;;44.83;9.03;;;;;;;;;;5068691;28;20525;-57
2022/03/06 11:03:15;;;;;;;58.40;10.13;;;;;;;;;;5049888;28;20194;-55
2022/03/06 11:05:42;;;;;;;50.97;9.47;;;;;;;;;;5049377;28;20610;-55
2022/03/06 11:08:11;;;;;;;42.60;8.30;;;;;;;;;;5061053;28;20620;-56
2022/03/06 11:10:39;;;;;;;40.33;8.20;;;;;;;;;;5058298;28;20214;-57
2022/03/06 11:13:05;;;;;;;53.23;9.33;;;;;;;;;;5049022;28;20237;-56
2022/03/06 11:15:31;;;;;;;47.27;9.20;;;;;;;;;;5050281;28;20199;-56
2022/03/06 11:18:01;;;;;;;45.27;9.07;;;;;;;;;;5050368;28;20194;-56
2022/03/06 11:20:28;;;;;;;43.43;8.27;;;;;;;;;;5055898;28;20202;-53
2022/03/06 11:23:12;;;;;;;52.57;10.13;;;;;;;;;;5049371;28;20187;-55
2022/03/06 11:25:46;;;;;;;42.47;8.80;;;;;;;;;;5048870;28;20196;-56
2022/03/06 11:28:21;;;;;;;46.20;8.67;;;;;;;;;;5050126;28;20187;-57
2022/03/06 11:30:47;;;;;;;53.23;10.00;;;;;;;;;;5030918;28;20233;-55
2022/03/06 11:33:13;;;;;;;51.33;9.80;;;;;;;;;;5037375;28;20179;-56
2022/03/06 11:35:44;;;;;;;42.60;8.87;;;;;;;;;;5040623;28;20563;-53
2022/03/06 11:38:12;;;;;;;25.57;6.47;;;;;;;;;;5049528;28;20183;-56
2022/03/06 11:40:37;;;;;;;40.00;8.40;;;;;;;;;;5031122;28;20198;-52
2022/03/06 11:43:04;;;;;;;47.43;9.57;;;;;;;;;;5014004;28;20196;-54
2022/03/06 11:45:48;;;;;;;48.70;9.40;;;;;;;;;;5029610;28;20630;-52
2022/03/06 11:48:24;;;;;;;40.90;8.43;;;;;;;;;;5030437;28;20280;-54
2022/03/06 11:51:19;;;;;;;35.80;7.63;;;;;;;;;;5049816;28;20197;-54
2022/03/06 11:53:53;;;;;;;40.83;8.53;;;;;;;;;;5048250;28;20172;-55
2022/03/06 11:56:33;;;;;;;50.20;9.50;;;;;;;;;;5036558;28;20325;-54
2022/03/06 11:59:10;;;;;;;45.53;8.90;;;;;;;;;;5047346;28;20194;-53
2022/03/06 12:01:43;;;;;;;38.17;7.87;;;;;;;;;;5047917;28;20183;-54
2022/03/06 12:04:11;;;;;;;30.93;7.13;;;;;;;;;;5048364;28;20172;-54
2022/03/06 12:06:42;;;;;;;40.57;8.60;;;;;;;;;;5061916;28;20183;-54
2022/03/06 12:09:24;;;;;;;47.07;8.83;;;;;;;;;;5047933;28;20301;-55
2022/03/06 12:11:51;;;;;;;39.60;8.10;;;;;;;;;;5029732;28;20180;-55
2022/03/06 12:14:32;;;;;;;51.27;9.43;;;;;;;;;;5047627;28;20213;-54
2022/03/06 12:17:07;;;;;;;37.17;8.00;;;;;;;;;;5049110;28;20184;-54
2022/03/06 12:19:53;;;;;;;42.60;7.87;;;;;;;;;;5047908;28;20155;-55
2022/03/06 12:22:19;;;;;;;30.97;7.17;;;;;;;;;;5038478;28;20860;-55
2022/03/06 12:24:47;;;;;;;38.47;8.03;;;;;;;;;;5047282;28;20219;-55
2022/03/06 12:27:17;;;;;;;42.07;8.20;;;;;;;;;;5048318;28;20575;-55
2022/03/06 12:29:55;;;;;;;38.67;7.87;;;;;;;;;;5047081;28;20593;-54
2022/03/06 12:32:27;;;;;;;34.23;7.70;;;;;;;;;;5047972;28;20524;-54
2022/03/06 12:34:57;;;;;;;30.93;7.47;;;;;;;;;;5047904;28;20223;-54
2022/03/06 12:37:26;;;;;;;44.03;8.70;;;;;;;;;;5048037;28;20180;-54
2022/03/06 12:39:52;;;;;;;33.47;7.63;;;;;;;;;;5048656;28;20720;-55
2022/03/06 12:42:25;;;;;;;30.40;6.93;;;;;;;;;;5047413;28;20183;-54
2022/03/06 12:44:56;;;;;;;38.63;8.20;;;;;;;;;;5048640;28;20203;-53
2022/03/06 12:47:22;;;;;;;46.37;9.00;;;;;;;;;;5010759;28;20640;-55
2022/03/06 12:49:49;;;;;;;51.43;9.80;;;;;;;;;;5027970;28;20264;-55
2022/03/06 12:52:25;;;;;;;34.90;7.40;;;;;;;;;;5028428;28;20223;-52
2022/03/06 12:54:52;;;;;;;40.97;8.40;;;;;;;;;;5027943;28;20682;-54
2022/03/06 12:57:18;;;;;;;35.13;6.87;;;;;;;;;;5048582;28;20255;-54
2022/03/06 12:59:48;;;;;;;36.30;7.47;;;;;;;;;;5048366;28;20685;-54
2022/03/06 13:02:16;;;;;;;66.23;11.13;;;;;;;;;;5047502;28;20534;-54
2022/03/06 13:04:47;;;;;;;35.83;7.43;;;;;;;;;;5042528;28;20211;-54
2022/03/06 13:07:13;;;;;;;41.07;8.33;;;;;;;;;;5045473;28;20655;-55
2022/03/06 13:09:39;;;;;;;39.63;8.20;;;;;;;;;;5053651;28;20183;-53
2022/03/06 13:12:06;;;;;;;45.57;9.00;;;;;;;;;;5067316;28;20181;-54
2022/03/06 13:14:36;;;;;;;37.67;7.63;;;;;;;;;;5066840;28;20202;-55
2022/03/06 13:17:03;;;;;;;32.63;6.97;;;;;;;;;;5049756;28;20221;-54
2022/03/06 13:19:36;;;;;;;45.87;9.03;;;;;;;;;;5046526;28;20172;-54
2022/03/06 13:22:05;;;;;;;29.77;6.60;;;;;;;;;;5046597;28;20189;-52
2022/03/06 13:24:37;;;;;;;33.70;7.00;;;;;;;;;;5047339;28;20563;-53
2022/03/06 13:27:03;;;;;;;29.17;6.27;;;;;;;;;;5054391;28;20488;-53
2022/03/06 13:29:29;;;;;;;39.63;7.87;;;;;;;;;;5045669;28;20175;-54
2022/03/06 13:31:55;;;;;;;39.27;8.10;;;;;;;;;;5048401;28;20512;-54
2022/03/06 13:34:21;;;;;;;54.27;9.27;;;;;;;;;;5047130;28;20238;-53
2022/03/06 13:36:47;;;;;;;42.20;8.27;;;;;;;;;;5053252;28;20178;-52
2022/03/06 13:39:15;;;;;;;35.33;7.13;;;;;;;;;;5056594;28;20234;-52
2022/03/06 13:41:51;;;;;;;41.17;8.27;;;;;;;;;;5047033;28;20225;-55
2022/03/06 13:44:17;;;;;;;33.80;7.37;;;;;;;;;;5047232;28;20635;-54
2022/03/06 13:46:43;;;;;;;43.57;8.87;;;;;;;;;;5045709;28;20199;-54
2022/03/06 13:49:10;;;;;;;41.60;8.07;;;;;;;;;;5046444;28;20199;-54
2022/03/06 13:51:36;;;;;;;47.37;8.80;;;;;;;;;;5047569;28;20199;-53
2022/03/06 13:54:03;;;;;;;48.70;9.13;;;;;;;;;;5043124;28;20192;-52
2022/03/06 13:56:29;;;;;;;45.10;8.87;;;;;;;;;;5043983;28;20275;-54
2022/03/06 13:58:55;;;;;;;41.13;8.37;;;;;;;;;;5046790;28;20278;-52
2022/03/06 14:01:21;;;;;;;41.27;8.37;;;;;;;;;;5049923;28;20700;-54
2022/03/06 14:03:47;;;;;;;47.27;9.17;;;;;;;;;;5030536;28;20215;-54
2022/03/06 14:06:13;;;;;;;32.53;7.40;;;;;;;;;;5045617;28;20300;-54
2022/03/06 14:08:46;;;;;;;48.73;9.27;;;;;;;;;;5050051;28;20221;-53
2022/03/06 14:11:25;;;;;;;53.73;9.67;;;;;;;;;;5047332;28;20194;-54
2022/03/06 14:13:55;;;;;;;56.00;10.17;;;;;;;;;;5045873;28;20180;-54
2022/03/06 14:16:21;;;;;;;50.67;9.63;;;;;;;;;;5043911;28;20191;-53
2022/03/06 14:18:51;;;;;;;54.43;9.70;;;;;;;;;;5042630;28;20189;-54
2022/03/06 14:21:20;;;;;;;62.30;11.17;;;;;;;;;;5036710;28;20270;-52
2022/03/06 14:23:47;;;;;;;67.33;11.47;;;;;;;;;;5043011;28;20401;-52